createdAt,value
2022-08-14T00:01:24.421Z,19.9
2022-08-14T00:21:28.330Z,19.6
2022-08-14T00:31:35.367Z,19.6
2022-08-14T00:41:24.374Z,18.6
2022-08-14T01:01:24.465Z,19.4
2022-08-14T01:11:24.464Z,19.3
2022-08-14T01:21:24.452Z,19.1
2022-08-14T01:31:24.483Z,18.8
2022-08-14T01:41:30.288Z,18.8
2022-08-14T02:01:26.573Z,18.9
2022-08-14T02:11:24.545Z,18.9
2022-08-14T02:31:36.047Z,18.3
2022-08-14T03:01:31.089Z,17.8
2022-08-14T03:11:24.599Z,17.4
2022-08-14T03:21:24.631Z,18
2022-08-14T03:31:26.060Z,17.4
2022-08-14T03:41:24.506Z,17.5
2022-08-14T03:51:24.676Z,16.6
2022-08-14T04:01:24.745Z,16.4
2022-08-14T04:21:24.736Z,16.4
2022-08-14T04:32:58.926Z,16.8
2022-08-14T05:11:24.838Z,17.9
2022-08-14T05:21:59.823Z,18.1
2022-08-14T05:31:24.834Z,19.6
2022-08-14T05:51:24.867Z,20.8
2022-08-14T06:11:31.164Z,21.4
2022-08-14T06:21:24.903Z,22.5
2022-08-14T06:31:24.939Z,23.1
2022-08-14T06:41:56.597Z,23.6
2022-08-14T06:51:24.962Z,24.1
2022-08-14T07:11:24.984Z,25
2022-08-14T07:21:25.009Z,25.9
2022-08-14T07:31:25.011Z,25.8
2022-08-14T07:41:25.026Z,26.6
2022-08-14T07:51:26.066Z,27.1
2022-08-14T08:01:25.038Z,28.3
2022-08-14T08:11:25.044Z,28.3
2022-08-14T08:21:27.062Z,28.5
2022-08-14T08:31:25.093Z,30.1
2022-08-14T08:41:25.101Z,29.8
2022-08-14T08:51:30.845Z,31.4
2022-08-14T09:11:25.157Z,33.9
2022-08-14T09:21:25.191Z,34.2
2022-08-14T09:31:25.161Z,34.6
2022-08-14T09:51:25.467Z,34.8
2022-08-14T10:01:25.223Z,34.8
2022-08-14T10:11:25.226Z,34.9
2022-08-14T10:21:25.264Z,37.2
2022-08-14T10:31:26.774Z,34
2022-08-14T10:41:31.934Z,31
2022-08-14T10:51:25.099Z,31
2022-08-14T11:01:25.314Z,33.3
2022-08-14T11:11:25.312Z,37
2022-08-14T11:21:25.334Z,32.3
2022-08-14T11:31:25.372Z,36.7
2022-08-14T11:41:25.390Z,33.3
2022-08-14T11:51:25.411Z,37.6
2022-08-14T12:01:25.407Z,36.8
2022-08-14T12:11:25.418Z,39.7
2022-08-14T12:41:27.916Z,40.6
2022-08-14T12:51:27.006Z,37
2022-08-14T13:01:25.374Z,34.9
2022-08-14T13:11:25.522Z,37.8
2022-08-14T13:21:25.522Z,38.6
2022-08-14T13:31:29.987Z,37.8
2022-08-14T13:41:34.629Z,37.6
2022-08-14T13:51:25.554Z,37
2022-08-14T14:01:25.608Z,38.6
2022-08-14T14:11:25.642Z,39.1
2022-08-14T14:21:25.625Z,37.9
2022-08-14T14:31:29.949Z,36.7
2022-08-14T14:51:25.655Z,30.9
2022-08-14T15:01:25.773Z,33.6
2022-08-14T15:11:25.692Z,30.9
2022-08-14T15:31:25.725Z,32.3
2022-08-14T15:41:25.560Z,31.8
2022-08-14T15:51:28.252Z,31.3
2022-08-14T16:01:50.711Z,31.4
2022-08-14T16:11:25.788Z,30.1
2022-08-14T16:21:25.806Z,29.6
2022-08-14T16:31:25.827Z,29.4
2022-08-14T16:41:25.832Z,29.2
2022-08-14T16:51:25.845Z,28.9
2022-08-14T17:01:27.301Z,28.6
2022-08-14T17:11:27.741Z,28.1
2022-08-14T17:21:31.848Z,27.9
2022-08-14T17:31:25.730Z,27.9
2022-08-14T17:41:32.631Z,27.4
2022-08-14T17:51:30.076Z,27.1
2022-08-14T18:01:26.116Z,26.9
2022-08-14T18:11:25.794Z,26.9
2022-08-14T18:21:56.286Z,26.6
2022-08-14T18:31:26.003Z,25.9
2022-08-14T18:41:26.011Z,25.6
2022-08-14T18:51:26.002Z,24.8
2022-08-14T19:01:26.061Z,24.6
2022-08-14T19:11:26.030Z,24.3
2022-08-14T19:21:26.068Z,24.2
2022-08-14T19:31:26.084Z,24.1
2022-08-14T19:41:29.207Z,23.4
2022-08-14T19:51:32.824Z,22.7
2022-08-14T20:01:26.201Z,22.3
2022-08-14T20:12:00.899Z,22.4
2022-08-14T20:21:34.550Z,22.2
2022-08-14T20:31:37.595Z,22.9
2022-08-14T20:41:26.199Z,21.8
2022-08-14T20:51:26.196Z,21.3
2022-08-14T21:01:33.272Z,20.9
2022-08-14T21:11:26.218Z,20.8
2022-08-14T21:21:26.076Z,20.8
2022-08-14T21:31:26.248Z,20.3
2022-08-14T21:41:49.853Z,20.4
2022-08-14T21:51:53.501Z,20.4
2022-08-14T22:01:26.378Z,19.9
2022-08-14T22:11:27.282Z,19.3
2022-08-14T22:21:26.326Z,19.2
2022-08-14T22:31:35.071Z,19.4
2022-08-14T22:41:31.492Z,19.2
2022-08-14T23:01:55.338Z,19.3
2022-08-14T23:21:28.926Z,19.4
2022-08-14T23:31:35.572Z,19.3
2022-08-14T23:41:26.443Z,19.4
2022-08-14T23:51:26.474Z,19.9
